Flight Track Log - Related Links

Times and Time Zones

All times are in EST time to prevent confusion due to time zone crossing. See the AWE403 flight status page for this flight to view local times or setup timezone preferences in your user account.

Time Position Orientation Groundspeed Altitude Reporting Facility
EST Latitude Longitude Course Direction KTS MPH feet Rate Location/Type
Tue 11:01:49 AM 33.5062 -112.0525 168° South  Level FlightAware Approximate
Tue 11:02:19 AM 33.4333 -112.0333 270° West 149 171 2,000  Level Phoenix TRACON
Tue 11:03:43 AM 33.4333 -112.1167 301° West 202 232 5,100 2,542 Climbing Phoenix TRACON
Tue 11:04:43 AM 33.4667 -112.1833 351° North 270 311 8,100 2,800 Climbing Phoenix TRACON
Tue 11:05:43 AM 33.5500 -112.2000 348° North 293 337 10,700 2,676 Climbing Phoenix TRACON
Tue 11:07:02 AM 33.6597 -112.2283 346° North 367 422 14,300 2,676 Climbing Albuquerque Center
Tue 11:08:02 AM 33.7442 -112.2531 346° North 341 392 16,900 2,400 Climbing Albuquerque Center
Tue 11:09:02 AM 33.8411 -112.2814 347° North 336 387 19,100 2,150 Climbing Albuquerque Center
Tue 11:10:02 AM 33.9483 -112.3103 343° North 352 405 21,200 1,950 Climbing Albuquerque Center
Tue 11:11:02 AM 34.0389 -112.3433 335° Northwest 359 413 23,000 1,750 Climbing Albuquerque Center
Tue 11:12:02 AM 34.1408 -112.4019 331° Northwest 364 419 24,700 1,550 Climbing Albuquerque Center
Tue 11:13:02 AM 34.2342 -112.4656 334° Northwest 380 437 26,100 1,350 Climbing Albuquerque Center
Tue 11:14:02 AM 34.3317 -112.5219 332° Northwest 380 437 27,400 1,150 Climbing Albuquerque Center
Tue 11:15:02 AM 34.4311 -112.5861 332° Northwest 385 443 28,400 1,100 Climbing Albuquerque Center
Tue 11:16:02 AM 34.5328 -112.6506 333° Northwest 396 456 29,600 1,100 Climbing Albuquerque Center
Tue 11:17:02 AM 34.6383 -112.7153 313° West 406 467 30,600 1,356 Climbing Albuquerque Center
Tue 11:18:59 AM 34.7756 -112.8919 300° West 415 478 33,600 1,356 Climbing Los Angeles Center
Tue 11:19:59 AM 34.8264 -113.0011 298° West 392 451 34,600 800 Climbing Los Angeles Center
Tue 11:20:59 AM 34.8750 -113.1108 301° West 371 427 35,200 550 Climbing Los Angeles Center
Tue 11:21:59 AM 34.9297 -113.2228 299° West 371 427 35,700 700 Climbing Los Angeles Center
Tue 11:22:59 AM 34.9847 -113.3425 292° West 389 448 36,600 650 Climbing Los Angeles Center
Tue 11:23:59 AM 35.0250 -113.4656 291° West 389 448 37,000 500 Climbing Los Angeles Center
Tue 11:24:59 AM 35.0653 -113.5936 292° West 399 459 37,600 500 Climbing Los Angeles Center
Tue 11:25:59 AM 35.1075 -113.7219 291° West 399 459 38,000 200 Climbing Los Angeles Center
Tue 11:26:59 AM 35.1475 -113.8478 294° West 404 465 38,000  Level Los Angeles Center
Tue 11:27:59 AM 35.1917 -113.9711 290° West 404 465 38,000  Level Los Angeles Center
Tue 11:28:59 AM 35.2292 -114.0972 291° West 404 465 38,000  Level Los Angeles Center
Tue 11:29:59 AM 35.2708 -114.2283 291° West 409 471 38,000  Level Los Angeles Center
Tue 11:30:59 AM 35.3106 -114.3572 290° West 409 471 38,000  Level Los Angeles Center
Tue 11:31:59 AM 35.3497 -114.4864 292° West 409 471 38,000  Level Los Angeles Center
Tue 11:32:59 AM 35.3933 -114.6181 291° West 409 471 38,000  Level Los Angeles Center
Tue 11:33:59 AM 35.4367 -114.7600 305° West 409 471 38,000  Level Los Angeles Center
Tue 11:34:59 AM 35.5047 -114.8786 311° West 414 476 38,000  Level Los Angeles Center
Tue 11:35:59 AM 35.5808 -114.9875 311° West 419 482 38,000  Level Los Angeles Center
Tue 11:36:59 AM 35.6569 -115.0936 311° West 419 482 38,000  Level Los Angeles Center
Tue 11:37:59 AM 35.7328 -115.2028 311° West 419 482 38,000  Level Los Angeles Center
Tue 11:38:59 AM 35.8086 -115.3094 311° West 425 489 38,000  Level Los Angeles Center
Tue 11:39:59 AM 35.8844 -115.4189 311° West 425 489 38,000  Level Los Angeles Center
Tue 11:40:59 AM 35.9603 -115.5286 312° West 425 489 38,000  Level Los Angeles Center
Tue 11:41:59 AM 36.0378 -115.6333 310° West 420 483 38,000  Level Los Angeles Center
Tue 11:42:59 AM 36.1050 -115.7331 311° West 420 483 38,000  Level Los Angeles Center
Tue 11:43:59 AM 36.1886 -115.8511 311° West 420 483 38,000  Level Los Angeles Center
Tue 11:44:59 AM 36.2578 -115.9514 307° West 420 483 38,000 50 Level Los Angeles Center
Tue 11:45:59 AM 36.3289 -116.0672 312° West 426 490 38,100  Climbing Los Angeles Center
Tue 11:46:59 AM 36.4058 -116.1728 311° West 421 484 38,000 -50 Descending Los Angeles Center
Tue 11:47:59 AM 36.4808 -116.2789 310° West 421 484 38,000  Level Los Angeles Center
Tue 11:48:59 AM 36.5558 -116.3903 310° West 424 488 38,000  Level Los Angeles Center
Tue 11:49:59 AM 36.6286 -116.4992 311° West 429 494 38,000  Level Los Angeles Center
Tue 11:50:59 AM 36.7033 -116.6056 310° West 419 482 38,000  Level Los Angeles Center
Tue 11:51:59 AM 36.7758 -116.7150 321° Northwest 414 476 38,000  Level Los Angeles Center
Tue 11:52:59 AM 36.8650 -116.8064 328° Northwest 414 476 38,000  Level Los Angeles Center
Tue 11:54:00 AM 36.9764 -116.8944 325° Northwest 419 482 38,000  Level Oakland Center
Tue 11:55:00 AM 37.0625 -116.9706 327° Northwest 425 489 38,000  Level Oakland Center
Tue 11:56:00 AM 37.1569 -117.0489 326° Northwest 420 483 38,000  Level Oakland Center
Tue 11:57:00 AM 37.2514 -117.1275 326° Northwest 415 478 38,000  Level Oakland Center
Tue 11:58:00 AM 37.3458 -117.2089 320° Northwest 415 478 38,000  Level Oakland Center
Tue 11:59:00 AM 37.4319 -117.2986 281° West 415 478 38,000  Level Oakland Center
Tue 12:00:00 PM 37.4528 -117.4336 264° West 379 436 38,000  Level Oakland Center
Tue 12:01:00 PM 37.4422 -117.5703 274° West 383 441 38,000  Level Oakland Center
Tue 12:02:00 PM 37.4503 -117.7058 277° West 383 441 38,000  Level Oakland Center
Tue 12:03:00 PM 37.4625 -117.8414 274° West 388 447 38,000  Level Oakland Center
Tue 12:04:00 PM 37.4700 -117.9744 275° West 388 447 38,000  Level Oakland Center
Tue 12:05:00 PM 37.4797 -118.1103 275° West 388 447 38,000  Level Oakland Center
Tue 12:06:00 PM 37.4892 -118.2461 276° West 388 447 38,000  Level Oakland Center
Tue 12:07:01 PM 37.5008 -118.3947 274° West 388 447 38,000  Level Oakland Center
Tue 12:08:00 PM 37.5081 -118.5358 274° West 393 452 38,000  Level Oakland Center
Tue 12:09:00 PM 37.5150 -118.6719 275° West 398 458 38,000  Level Oakland Center
Tue 12:10:00 PM 37.5239 -118.8078 273° West 398 458 38,000 -50 Level Oakland Center
Tue 12:11:00 PM 37.5281 -118.9231 273° West 393 452 37,900  Descending Oakland Center
Tue 12:12:00 PM 37.5344 -119.0589 275° West 393 452 38,000  Climbing Oakland Center
Tue 12:13:00 PM 37.5450 -119.2000 275° West 388 447 37,900 -300 Descending Oakland Center
Tue 12:14:00 PM 37.5533 -119.3336 273° West 388 447 37,400 -850 Descending Oakland Center
Tue 12:15:00 PM 37.5592 -119.4722 279° West 388 447 36,200 -1,400 Descending Oakland Center
Tue 12:16:00 PM 37.5731 -119.5872 270° West 369 425 34,600 -1,636 Descending Oakland Center
Tue 12:17:01 PM 37.5728 -119.7289 273° West 380 437 32,900 -1,650 Descending Oakland Center
Tue 12:18:00 PM 37.5781 -119.8572 273° West 380 437 31,300 -1,462 Descending Oakland Center
Tue 12:19:00 PM 37.5836 -119.9986 275° West 375 432 30,000 -1,550 Descending Oakland Center
Tue 12:20:00 PM 37.5906 -120.1006 273° West 361 415 28,200 -1,000 Descending Oakland Center
Tue 12:21:00 PM 37.5956 -120.2211 273° West 349 402 28,000 -1,050 Descending Oakland Center
Tue 12:22:00 PM 37.6006 -120.3417 274° West 349 402 26,100 -2,900 Descending Oakland Center
Tue 12:23:00 PM 37.6075 -120.4675 273° West 349 402 22,200 -3,050 Descending Oakland Center
Tue 12:24:00 PM 37.6119 -120.5958 274° West 349 402 20,000 -1,100 Descending Oakland Center
Tue 12:25:00 PM 37.6186 -120.7139 268° West 349 402 20,000  Level Oakland Center
Tue 12:25:35 PM 37.6167 -120.7833 280° West 337 388 20,000 -1,453 Level Northern Cal TRACON
Tue 12:26:35 PM 37.6333 -120.9000 260° West 332 382 17,700 -1,650 Descending Northern Cal TRACON
Tue 12:27:35 PM 37.6167 -121.0167 260° West 329 379 16,700 -1,140 Descending Northern Cal TRACON
Tue 12:28:36 PM 37.6000 -121.1333 270° West 330 380 15,400 -1,289 Descending Northern Cal TRACON
Tue 12:29:36 PM 37.6000 -121.2500 258° West 320 368 14,100 -1,350 Descending Northern Cal TRACON
Tue 12:30:36 PM 37.5833 -121.3500 260° West 313 360 12,700 -1,350 Descending Northern Cal TRACON
Tue 12:31:36 PM 37.5667 -121.4667 270° West 307 353 11,400 -843 Descending Northern Cal TRACON
Tue 12:32:37 PM 37.5667 -121.5500 256° West 255 293 11,000 -198 Descending Northern Cal TRACON
Tue 12:33:37 PM 37.5500 -121.6333 288° West 223 257 11,000 -250 Level Northern Cal TRACON
Tue 12:34:37 PM 37.5667 -121.7000 288° West 189 217 10,500 -900 Descending Northern Cal TRACON
Tue 12:35:37 PM 37.5833 -121.7667 218° Southwest 188 216 9,200 -750 Descending Northern Cal TRACON
Tue 12:36:37 PM 37.5500 -121.8000 195° South 209 241 9,000 -250 Descending Northern Cal TRACON
Tue 12:37:37 PM 37.5000 -121.8167 253° West 206 237 8,700 -500 Descending Northern Cal TRACON
Tue 12:38:37 PM 37.4833 -121.8833 253° West 190 219 8,000 -694 Descending Northern Cal TRACON
Tue 12:39:38 PM 37.4667 -121.9500 293° West 188 216 7,300 -991 Descending Northern Cal TRACON
Tue 12:40:32 PM 37.4833 -122.0000 288° West 188 216 6,100 -1,158 Descending Northern Cal TRACON
Tue 12:41:32 PM 37.5000 -122.0667 310° West 177 204 5,100 -800 Descending Northern Cal TRACON
Tue 12:42:32 PM 37.5333 -122.1167 310° West 177 204 4,500 -600 Descending Northern Cal TRACON

Login

Don't have an account? Register now (free) for customized features, flight alerts, and more!